createdAt,value
2023-04-09T00:02:02.542Z,9.07
2023-04-09T00:04:29.165Z,7.97
2023-04-09T00:06:55.781Z,9.95
2023-04-09T00:09:22.333Z,9.68
2023-04-09T00:11:49.981Z,9.70
2023-04-09T00:14:25.523Z,10.70
2023-04-09T00:16:52.139Z,11.25
2023-04-09T00:19:18.990Z,11.10
2023-04-09T00:21:45.648Z,9.63
2023-04-09T00:24:12.179Z,9.65
2023-04-09T00:26:38.780Z,10.80
2023-04-09T00:29:05.629Z,10.85
2023-04-09T00:31:33.034Z,9.40
2023-04-09T00:33:59.610Z,9.82
2023-04-09T00:36:27.124Z,8.63
2023-04-09T00:38:54.254Z,10.30
2023-04-09T00:41:20.989Z,11.70
2023-04-09T00:43:47.525Z,9.70
2023-04-09T00:46:14.679Z,9.00
2023-04-09T00:48:41.790Z,10.98
2023-04-09T00:51:08.435Z,8.70
2023-04-09T00:53:35.228Z,9.95
2023-04-09T00:56:02.430Z,12.15
2023-04-09T00:58:29.024Z,10.65
2023-04-09T01:00:55.815Z,10.00
2023-04-09T01:03:22.658Z,10.45
2023-04-09T01:06:08.108Z,10.75
2023-04-09T01:08:56.404Z,10.90
2023-04-09T01:12:02.490Z,12.40
2023-04-09T01:14:47.655Z,10.40
2023-04-09T01:17:27.438Z,11.20
2023-04-09T01:20:04.000Z,10.90
2023-04-09T01:23:00.924Z,11.15
2023-04-09T01:25:49.070Z,11.00
2023-04-09T01:28:19.891Z,12.65
2023-04-09T01:30:53.544Z,11.20
2023-04-09T01:33:21.868Z,11.57
2023-04-09T01:35:52.787Z,10.70
2023-04-09T01:38:22.216Z,10.73
2023-04-09T01:40:50.780Z,12.20
2023-04-09T01:43:18.987Z,12.45
2023-04-09T01:45:46.120Z,11.05
2023-04-09T01:48:13.958Z,12.05
2023-04-09T01:50:41.193Z,12.00
2023-04-09T01:53:08.029Z,11.68
2023-04-09T01:55:34.639Z,11.98
2023-04-09T01:58:01.190Z,12.23
2023-04-09T02:00:35.254Z,11.80
2023-04-09T02:03:09.285Z,9.95
2023-04-09T02:05:44.609Z,11.60
2023-04-09T02:08:13.411Z,11.23
2023-04-09T02:10:40.835Z,12.40
2023-04-09T02:13:12.447Z,11.98
2023-04-09T02:15:40.355Z,13.82
2023-04-09T02:18:21.589Z,11.85
2023-04-09T02:20:48.427Z,13.38
2023-04-09T02:23:16.285Z,11.63
2023-04-09T02:25:44.028Z,11.77
2023-04-09T02:28:10.923Z,12.55
2023-04-09T02:30:37.501Z,10.10
2023-04-09T02:33:04.149Z,12.32
2023-04-09T02:35:30.916Z,10.75
2023-04-09T02:37:57.486Z,11.88
2023-04-09T02:40:24.082Z,11.57
2023-04-09T02:42:52.824Z,10.70
2023-04-09T02:45:19.452Z,11.77
2023-04-09T02:47:46.061Z,12.27
2023-04-09T02:50:12.640Z,12.85
2023-04-09T02:52:47.423Z,12.25
2023-04-09T02:55:14.881Z,12.23
2023-04-09T02:57:41.921Z,13.77
2023-04-09T03:00:09.635Z,12.40
2023-04-09T03:02:36.444Z,12.60
2023-04-09T03:05:03.349Z,16.42
2023-04-09T03:07:30.650Z,13.02
2023-04-09T03:09:57.416Z,14.60
2023-04-09T03:12:24.046Z,15.20
2023-04-09T03:14:50.579Z,15.57
2023-04-09T03:17:17.138Z,15.55
2023-04-09T03:19:43.713Z,16.67
2023-04-09T03:22:10.483Z,18.92
2023-04-09T03:24:37.246Z,16.80
2023-04-09T03:27:05.817Z,13.85
2023-04-09T03:29:33.561Z,21.63
2023-04-09T03:32:00.251Z,18.88
2023-04-09T03:34:26.799Z,14.65
2023-04-09T03:36:56.019Z,15.43
2023-04-09T03:39:27.872Z,14.80
2023-04-09T03:41:54.649Z,13.55
2023-04-09T03:44:21.339Z,14.32
2023-04-09T03:47:08.256Z,13.93
2023-04-09T03:49:36.772Z,14.15
2023-04-09T03:52:15.594Z,16.42
2023-04-09T03:54:45.329Z,15.93
2023-04-09T03:57:16.970Z,23.88
2023-04-09T03:59:46.258Z,19.35
2023-04-09T04:02:16.320Z,12.15
2023-04-09T04:04:47.215Z,12.73
2023-04-09T04:07:14.145Z,11.60
2023-04-09T04:09:47.129Z,14.00
2023-04-09T04:12:16.932Z,15.32
2023-04-09T04:15:04.882Z,16.35
2023-04-09T04:17:51.800Z,27.30
2023-04-09T04:20:39.148Z,17.33
2023-04-09T04:23:12.343Z,27.42
2023-04-09T04:25:47.280Z,20.50
2023-04-09T04:28:18.313Z,17.52
2023-04-09T04:30:45.818Z,22.67
2023-04-09T04:33:13.689Z,22.02
2023-04-09T04:35:47.385Z,12.50
2023-04-09T04:38:37.410Z,18.00
2023-04-09T04:43:41.427Z,14.43
2023-04-09T04:46:10.564Z,15.40
2023-04-09T04:48:37.314Z,18.52
2023-04-09T04:51:03.993Z,16.67
2023-04-09T04:53:38.886Z,19.08
2023-04-09T04:56:14.693Z,16.92
2023-04-09T04:58:51.826Z,14.63
2023-04-09T05:01:20.339Z,12.93
2023-04-09T05:03:47.521Z,11.50
2023-04-09T05:06:27.968Z,16.33
2023-04-09T05:08:59.645Z,15.98
2023-04-09T05:11:28.816Z,15.00
2023-04-09T05:13:58.233Z,23.90
2023-04-09T05:16:24.846Z,12.95
2023-04-09T05:19:00.618Z,17.95
2023-04-09T05:21:27.644Z,17.48
2023-04-09T05:23:56.330Z,15.52
2023-04-09T05:26:23.016Z,16.20
2023-04-09T05:28:53.778Z,13.90
2023-04-09T05:31:22.490Z,15.13
2023-04-09T05:33:55.378Z,17.15
2023-04-09T05:36:32.234Z,18.15
2023-04-09T05:38:59.690Z,18.42
2023-04-09T05:41:26.449Z,18.67
2023-04-09T05:44:13.345Z,17.23
2023-04-09T05:46:40.004Z,13.57
2023-04-09T05:49:07.765Z,12.43
2023-04-09T05:51:36.429Z,12.80
2023-04-09T05:54:04.112Z,14.18
2023-04-09T05:59:02.297Z,13.93
2023-04-09T06:01:29.730Z,10.57
2023-04-09T06:03:59.043Z,12.63
2023-04-09T06:06:29.909Z,13.65
2023-04-09T06:08:58.744Z,13.07
2023-04-09T06:11:25.967Z,12.07
2023-04-09T06:13:52.728Z,14.93
2023-04-09T06:16:19.589Z,13.85
2023-04-09T06:18:47.076Z,13.98
2023-04-09T06:21:13.709Z,13.98
2023-04-09T06:23:40.356Z,18.00
2023-04-09T06:26:06.889Z,15.02
2023-04-09T06:28:33.495Z,17.27
2023-04-09T06:31:00.329Z,14.88
2023-04-09T06:33:26.916Z,14.45
2023-04-09T06:35:53.534Z,14.13
2023-04-09T06:38:20.151Z,13.57
2023-04-09T06:40:46.721Z,15.02
2023-04-09T06:43:13.250Z,15.50
2023-04-09T06:45:50.831Z,14.30
2023-04-09T06:48:17.379Z,13.55
2023-04-09T06:50:44.455Z,12.77
2023-04-09T06:53:11.050Z,13.23
2023-04-09T06:55:37.647Z,11.68
2023-04-09T06:58:04.370Z,12.25
2023-04-09T07:00:31.176Z,12.25
2023-04-09T07:02:57.955Z,12.38
2023-04-09T07:05:27.025Z,12.75
2023-04-09T07:07:53.698Z,13.48
2023-04-09T07:10:20.474Z,11.32
2023-04-09T07:12:47.054Z,13.13
2023-04-09T07:15:13.587Z,11.73
2023-04-09T07:17:41.112Z,11.77
2023-04-09T07:20:07.966Z,13.30
2023-04-09T07:22:36.268Z,11.63
2023-04-09T07:25:02.924Z,13.45
2023-04-09T07:27:29.512Z,12.63
2023-04-09T07:29:59.871Z,13.38
2023-04-09T07:32:28.111Z,12.10
2023-04-09T07:34:55.845Z,13.68
2023-04-09T07:37:22.437Z,12.48
2023-04-09T07:39:50.019Z,12.85
2023-04-09T07:42:16.655Z,12.05
2023-04-09T07:44:43.833Z,10.85
2023-04-09T07:47:11.283Z,9.77
2023-04-09T07:49:38.386Z,10.57
2023-04-09T07:52:05.803Z,11.95
2023-04-09T07:54:32.935Z,12.63
2023-04-09T07:57:01.528Z,11.80
2023-04-09T07:59:28.094Z,12.18
2023-04-09T08:01:54.754Z,11.65
2023-04-09T08:04:21.665Z,12.35
2023-04-09T08:06:51.096Z,12.02
2023-04-09T08:09:18.774Z,12.13
2023-04-09T08:11:46.079Z,11.05
2023-04-09T08:14:13.388Z,11.23
2023-04-09T08:16:44.673Z,10.88
2023-04-09T08:19:11.609Z,10.55
2023-04-09T08:21:38.850Z,11.70
2023-04-09T08:24:06.082Z,11.25
2023-04-09T08:26:32.687Z,9.95
2023-04-09T08:28:59.322Z,11.02
2023-04-09T08:31:26.152Z,10.25
2023-04-09T08:33:53.547Z,9.38
2023-04-09T08:36:20.829Z,10.25
2023-04-09T08:38:49.678Z,8.82
2023-04-09T08:41:26.753Z,9.55
2023-04-09T08:46:24.073Z,8.80
2023-04-09T08:48:51.935Z,9.68
2023-04-09T08:51:24.160Z,7.85
2023-04-09T08:53:57.399Z,9.00
2023-04-09T08:56:24.745Z,8.50
2023-04-09T08:58:51.613Z,7.88
2023-04-09T09:01:29.475Z,8.13
2023-04-09T09:04:00.496Z,7.78
2023-04-09T09:06:30.124Z,8.95
2023-04-09T09:09:16.372Z,8.27
2023-04-09T09:11:51.027Z,7.30
2023-04-09T09:14:19.807Z,9.45
2023-04-09T09:16:58.262Z,9.32
2023-04-09T09:19:24.921Z,8.30
2023-04-09T09:22:06.425Z,8.07
2023-04-09T09:24:34.361Z,6.75
2023-04-09T09:27:02.713Z,6.90
2023-04-09T09:29:29.539Z,7.10
2023-04-09T09:31:56.752Z,6.80
2023-04-09T09:34:24.338Z,5.85
2023-04-09T09:36:52.043Z,6.13
2023-04-09T09:39:18.742Z,5.75
2023-04-09T09:41:46.531Z,5.80
2023-04-09T09:44:31.839Z,5.80
2023-04-09T09:46:58.887Z,6.40
2023-04-09T09:49:25.448Z,5.72
2023-04-09T09:51:53.409Z,4.68
2023-04-09T09:54:23.464Z,4.93
2023-04-09T09:56:52.829Z,5.10
2023-04-09T09:59:22.651Z,5.85
2023-04-09T10:01:57.251Z,5.35
2023-04-09T10:04:25.700Z,5.00
2023-04-09T10:06:53.643Z,5.10
2023-04-09T10:09:22.046Z,5.10
2023-04-09T10:11:48.860Z,5.00
2023-04-09T10:14:17.794Z,5.13
2023-04-09T10:16:44.435Z,5.80
2023-04-09T10:19:14.657Z,4.63
2023-04-09T10:21:47.656Z,5.45
2023-04-09T10:24:15.935Z,5.80
2023-04-09T10:26:44.561Z,5.47
2023-04-09T10:29:16.527Z,4.97
2023-04-09T10:31:48.478Z,4.97
2023-04-09T10:34:16.514Z,4.93
2023-04-09T10:36:52.998Z,5.40
2023-04-09T10:39:19.679Z,4.75
2023-04-09T10:41:48.822Z,5.85
2023-04-09T10:44:23.012Z,5.80
2023-04-09T10:46:51.377Z,4.78
2023-04-09T10:49:19.770Z,4.82
2023-04-09T10:52:03.480Z,4.65
2023-04-09T10:54:33.298Z,4.75
2023-04-09T10:57:08.990Z,4.18
2023-04-09T10:59:42.905Z,3.58
2023-04-09T11:02:27.111Z,4.50
2023-04-09T11:05:12.402Z,4.50
2023-04-09T11:07:43.825Z,4.38
2023-04-09T11:10:10.467Z,3.30
2023-04-09T11:12:39.646Z,3.80
2023-04-09T11:15:06.978Z,3.53
2023-04-09T11:17:36.873Z,3.92
2023-04-09T11:20:03.968Z,3.88
2023-04-09T11:22:30.611Z,4.00
2023-04-09T11:24:57.160Z,3.33
2023-04-09T11:27:23.832Z,2.60
2023-04-09T11:29:55.593Z,3.03
2023-04-09T11:34:48.572Z,4.10
2023-04-09T11:37:16.895Z,3.40
2023-04-09T11:39:46.734Z,4.00
2023-04-09T11:42:16.092Z,3.70
2023-04-09T11:44:44.994Z,4.50
2023-04-09T11:47:13.435Z,4.43
2023-04-09T11:49:40.764Z,4.38
2023-04-09T11:52:07.339Z,4.70
2023-04-09T11:54:34.237Z,4.95
2023-04-09T11:57:01.813Z,4.22
2023-04-09T11:59:28.576Z,4.72
2023-04-09T12:01:57.811Z,4.45
2023-04-09T12:04:25.006Z,5.38
2023-04-09T12:06:51.938Z,4.88
2023-04-09T12:09:18.503Z,4.72
2023-04-09T12:11:49.032Z,4.32
2023-04-09T12:14:17.323Z,4.50
2023-04-09T12:16:44.767Z,5.28
2023-04-09T12:19:12.520Z,4.43
2023-04-09T12:21:50.666Z,4.68
2023-04-09T12:24:18.732Z,4.70
2023-04-09T12:26:46.603Z,4.78
2023-04-09T12:29:18.366Z,4.43
2023-04-09T12:31:45.593Z,4.88
2023-04-09T12:34:12.791Z,4.28
2023-04-09T12:36:41.502Z,4.35
2023-04-09T12:39:09.622Z,4.15
2023-04-09T12:41:36.783Z,4.55
2023-04-09T12:44:03.366Z,4.03
2023-04-09T12:46:32.412Z,4.88
2023-04-09T12:48:59.370Z,4.68
2023-04-09T12:51:26.018Z,4.93
2023-04-09T12:53:53.039Z,5.13
2023-04-09T12:56:20.256Z,4.97
2023-04-09T12:58:46.799Z,5.68
2023-04-09T13:01:13.493Z,4.97
2023-04-09T13:03:41.489Z,4.90
2023-04-09T13:06:08.666Z,5.32
2023-04-09T13:08:35.280Z,3.92
2023-04-09T13:11:01.884Z,4.90
2023-04-09T13:13:28.743Z,5.03
2023-04-09T13:15:55.484Z,4.43
2023-04-09T13:18:22.069Z,4.47
2023-04-09T13:20:48.679Z,4.68
2023-04-09T13:23:15.477Z,4.05
2023-04-09T13:25:42.078Z,4.72
2023-04-09T13:28:08.624Z,3.95
2023-04-09T13:30:35.660Z,4.90
2023-04-09T13:33:02.509Z,4.10
2023-04-09T13:35:29.166Z,4.20
2023-04-09T13:37:55.905Z,4.13
2023-04-09T13:40:22.457Z,4.15
2023-04-09T13:42:49.025Z,4.25
2023-04-09T13:45:15.688Z,3.95
2023-04-09T13:47:43.020Z,4.18
2023-04-09T13:50:10.405Z,4.00
2023-04-09T13:52:37.014Z,4.43
2023-04-09T13:55:04.812Z,3.63
2023-04-09T13:57:31.353Z,4.30
2023-04-09T13:59:57.925Z,4.28
2023-04-09T14:02:24.679Z,3.97
2023-04-09T14:04:51.451Z,4.38
2023-04-09T14:07:18.032Z,5.22
2023-04-09T14:09:44.601Z,4.10
2023-04-09T14:12:11.160Z,4.15
2023-04-09T14:14:37.811Z,4.55
2023-04-09T14:17:04.414Z,4.82
2023-04-09T14:19:31.041Z,4.15
2023-04-09T14:21:57.608Z,3.92
2023-04-09T14:24:24.198Z,4.03
2023-04-09T14:26:53.588Z,4.20
2023-04-09T14:29:20.995Z,3.63
2023-04-09T14:31:53.500Z,4.25
2023-04-09T14:34:21.129Z,4.03
2023-04-09T14:36:49.898Z,4.25
2023-04-09T14:39:16.550Z,3.47
2023-04-09T14:41:43.206Z,4.88
2023-04-09T14:44:09.730Z,4.38
2023-04-09T14:46:36.733Z,4.10
2023-04-09T14:49:03.330Z,4.40
2023-04-09T14:51:32.794Z,3.80
2023-04-09T14:53:59.549Z,3.72
2023-04-09T14:56:26.165Z,3.55
2023-04-09T14:58:53.046Z,3.67
2023-04-09T15:01:19.782Z,3.55
2023-04-09T15:03:46.586Z,3.22
2023-04-09T15:06:13.332Z,3.55
2023-04-09T15:08:39.902Z,3.92
2023-04-09T15:11:06.473Z,3.70
2023-04-09T15:13:32.996Z,3.42
2023-04-09T15:15:59.629Z,3.72
2023-04-09T15:18:26.250Z,4.00
2023-04-09T15:20:52.829Z,3.58
2023-04-09T15:23:19.401Z,3.10
2023-04-09T15:25:45.980Z,3.80
2023-04-09T15:28:12.538Z,3.75
2023-04-09T15:30:39.236Z,3.97
2023-04-09T15:33:06.240Z,4.10
2023-04-09T15:35:33.082Z,4.13
2023-04-09T15:37:59.633Z,4.20
2023-04-09T15:40:26.305Z,4.07
2023-04-09T15:42:52.928Z,3.70
2023-04-09T15:45:19.561Z,4.00
2023-04-09T15:47:48.537Z,4.38
2023-04-09T15:50:15.162Z,3.20
2023-04-09T15:52:41.826Z,3.22
2023-04-09T15:55:09.038Z,3.15
2023-04-09T15:57:35.669Z,3.28
2023-04-09T16:00:02.408Z,2.80
2023-04-09T16:02:31.188Z,3.50
2023-04-09T16:04:57.850Z,3.42
2023-04-09T16:07:24.513Z,2.90
2023-04-09T16:09:51.206Z,3.40
2023-04-09T16:12:17.744Z,3.75
2023-04-09T16:14:44.577Z,3.00
2023-04-09T16:17:11.333Z,2.97
2023-04-09T16:19:38.004Z,3.25
2023-04-09T16:22:04.607Z,3.20
2023-04-09T16:24:32.314Z,3.13
2023-04-09T16:26:58.895Z,3.10
2023-04-09T16:29:25.744Z,3.75
2023-04-09T16:31:52.837Z,3.30
2023-04-09T16:34:19.742Z,3.55
2023-04-09T16:36:46.403Z,2.92
2023-04-09T16:39:13.065Z,3.00
2023-04-09T16:41:39.625Z,2.95
2023-04-09T16:44:06.651Z,2.90
2023-04-09T16:46:33.204Z,2.72
2023-04-09T16:48:59.773Z,3.17
2023-04-09T16:51:26.405Z,2.45
2023-04-09T16:53:55.113Z,2.75
2023-04-09T16:56:21.677Z,2.45
2023-04-09T16:58:50.400Z,2.70
2023-04-09T17:01:18.450Z,2.78
2023-04-09T17:03:45.173Z,2.55
2023-04-09T17:06:11.850Z,2.35
2023-04-09T17:08:40.506Z,2.83
2023-04-09T17:11:07.174Z,2.55
2023-04-09T17:13:37.732Z,3.15
2023-04-09T17:16:04.610Z,2.40
2023-04-09T17:18:31.208Z,2.38
2023-04-09T17:20:57.895Z,2.42
2023-04-09T17:23:24.438Z,2.00
2023-04-09T17:25:51.028Z,1.90
2023-04-09T17:28:18.920Z,2.42
2023-04-09T17:30:45.748Z,2.45
2023-04-09T17:33:12.467Z,2.22
2023-04-09T17:35:41.509Z,2.20
2023-04-09T17:38:08.180Z,2.63
2023-04-09T17:40:34.713Z,2.60
2023-04-09T17:43:01.342Z,1.88
2023-04-09T17:45:28.031Z,2.33
2023-04-09T17:47:55.285Z,2.10
2023-04-09T17:50:21.887Z,2.33
2023-04-09T17:52:48.586Z,2.15
2023-04-09T17:55:15.437Z,2.88
2023-04-09T17:57:42.815Z,2.33
2023-04-09T18:00:10.464Z,2.10
2023-04-09T18:02:46.012Z,1.90
2023-04-09T18:05:13.143Z,2.20
2023-04-09T18:07:39.814Z,2.80
2023-04-09T18:10:06.848Z,2.35
2023-04-09T18:12:33.395Z,2.33
2023-04-09T18:14:59.948Z,2.30
2023-04-09T18:17:26.735Z,2.47
2023-04-09T18:19:54.459Z,2.63
2023-04-09T18:22:21.279Z,3.42
2023-04-09T18:24:47.833Z,3.47
2023-04-09T18:27:14.485Z,3.47
2023-04-09T18:29:41.434Z,3.55
2023-04-09T18:32:07.999Z,3.13
2023-04-09T18:34:34.682Z,3.22
2023-04-09T18:37:01.367Z,3.80
2023-04-09T18:39:27.919Z,3.70
2023-04-09T18:41:54.539Z,3.90
2023-04-09T18:44:21.156Z,3.05
2023-04-09T18:46:47.763Z,4.65
2023-04-09T18:49:14.395Z,4.25
2023-04-09T18:51:41.103Z,3.33
2023-04-09T18:54:07.710Z,3.00
2023-04-09T18:56:34.298Z,3.45
2023-04-09T18:59:01.015Z,3.85
2023-04-09T19:01:27.612Z,2.95
2023-04-09T19:03:54.504Z,2.63
2023-04-09T19:06:21.644Z,4.63
2023-04-09T19:08:50.084Z,4.18
2023-04-09T19:11:16.882Z,4.35
2023-04-09T19:13:43.451Z,3.50
2023-04-09T19:16:10.154Z,4.03
2023-04-09T19:18:37.519Z,4.15
2023-04-09T19:21:05.691Z,4.18
2023-04-09T19:23:34.311Z,4.60
2023-04-09T19:26:01.831Z,5.00
2023-04-09T19:28:28.793Z,5.00
2023-04-09T19:30:55.789Z,4.65
2023-04-09T19:33:26.740Z,5.18
2023-04-09T19:35:55.335Z,5.03
2023-04-09T19:38:22.129Z,4.82
2023-04-09T19:40:48.947Z,4.00
2023-04-09T19:43:15.573Z,4.00
2023-04-09T19:45:44.907Z,4.38
2023-04-09T19:48:12.681Z,4.20
2023-04-09T19:50:41.081Z,5.43
2023-04-09T19:53:07.704Z,3.80
2023-04-09T19:55:34.328Z,4.10
2023-04-09T19:58:01.595Z,3.58
2023-04-09T20:00:28.607Z,4.65
2023-04-09T20:02:56.063Z,3.83
2023-04-09T20:05:22.910Z,3.80
2023-04-09T20:07:50.616Z,3.30
2023-04-09T20:10:17.224Z,4.10
2023-04-09T20:12:47.440Z,3.83
2023-04-09T20:15:14.217Z,5.95
2023-04-09T20:17:41.915Z,4.53
2023-04-09T20:20:08.968Z,5.30
2023-04-09T20:22:35.526Z,4.80
2023-04-09T20:25:02.261Z,4.75
2023-04-09T20:27:28.882Z,5.07
2023-04-09T20:29:55.469Z,5.25
2023-04-09T20:32:22.619Z,5.10
2023-04-09T20:34:49.569Z,4.95
2023-04-09T20:37:16.260Z,4.97
2023-04-09T20:39:42.807Z,4.30
2023-04-09T20:42:09.499Z,4.25
2023-04-09T20:44:36.154Z,4.32
2023-04-09T20:47:02.757Z,4.15
2023-04-09T20:49:29.383Z,4.80
2023-04-09T20:51:56.806Z,4.30
2023-04-09T20:54:23.417Z,4.18
2023-04-09T20:56:50.287Z,4.75
2023-04-09T20:59:18.180Z,3.85
2023-04-09T21:01:45.021Z,4.38
2023-04-09T21:04:11.855Z,4.78
2023-04-09T21:06:38.489Z,4.75
2023-04-09T21:09:05.052Z,4.25
2023-04-09T21:11:31.594Z,4.60
2023-04-09T21:13:58.517Z,5.20
2023-04-09T21:16:27.195Z,4.38
2023-04-09T21:18:54.245Z,5.10
2023-04-09T21:21:21.359Z,4.90
2023-04-09T21:23:47.952Z,5.60
2023-04-09T21:26:15.041Z,5.18
2023-04-09T21:28:41.699Z,5.13
2023-04-09T21:31:11.064Z,5.25
2023-04-09T21:33:39.225Z,4.78
2023-04-09T21:36:07.942Z,5.53
2023-04-09T21:38:34.716Z,4.97
2023-04-09T21:41:01.793Z,4.95
2023-04-09T21:43:29.201Z,6.32
2023-04-09T21:45:58.926Z,4.60
2023-04-09T21:48:26.446Z,5.30
2023-04-09T21:50:53.036Z,5.55
2023-04-09T21:53:19.572Z,5.65
2023-04-09T21:55:46.102Z,5.50
2023-04-09T21:58:12.730Z,5.65
2023-04-09T22:00:39.276Z,5.40
2023-04-09T22:03:06.124Z,5.32
2023-04-09T22:05:36.580Z,5.38
2023-04-09T22:08:03.215Z,6.22
2023-04-09T22:10:29.820Z,5.57
2023-04-09T22:12:56.702Z,5.45
2023-04-09T22:15:23.259Z,5.55
2023-04-09T22:17:49.893Z,5.45
2023-04-09T22:20:16.664Z,5.55
2023-04-09T22:22:43.334Z,5.43
2023-04-09T22:25:11.602Z,6.05
2023-04-09T22:27:38.182Z,6.35
2023-04-09T22:30:06.310Z,6.45
2023-04-09T22:32:33.499Z,6.75
2023-04-09T22:35:00.285Z,7.95
2023-04-09T22:37:27.734Z,7.35
2023-04-09T22:39:54.309Z,6.75
2023-04-09T22:42:20.966Z,6.82
2023-04-09T22:44:47.562Z,6.25
2023-04-09T22:47:14.127Z,6.35
2023-04-09T22:49:40.683Z,6.53
2023-04-09T22:52:08.126Z,5.65
2023-04-09T22:54:34.758Z,6.38
2023-04-09T22:57:01.873Z,7.43
2023-04-09T22:59:37.243Z,7.57
2023-04-09T23:02:06.541Z,7.50
2023-04-09T23:04:34.789Z,7.55
2023-04-09T23:07:02.234Z,6.47
2023-04-09T23:09:30.275Z,7.13
2023-04-09T23:11:57.144Z,6.47
2023-04-09T23:14:23.743Z,7.20
2023-04-09T23:16:50.354Z,6.18
2023-04-09T23:19:16.927Z,6.63
2023-04-09T23:21:43.544Z,6.47
2023-04-09T23:24:10.384Z,6.72
2023-04-09T23:26:36.919Z,7.18
2023-04-09T23:29:03.482Z,8.00
2023-04-09T23:31:30.061Z,6.68
2023-04-09T23:33:56.676Z,6.07
2023-04-09T23:36:24.305Z,6.85
2023-04-09T23:38:51.208Z,6.72
2023-04-09T23:41:17.785Z,7.13
2023-04-09T23:43:44.376Z,7.45
2023-04-09T23:46:10.943Z,7.10
2023-04-09T23:48:37.554Z,6.40
2023-04-09T23:51:04.319Z,6.18
2023-04-09T23:53:30.893Z,7.65
2023-04-09T23:55:57.421Z,7.28
2023-04-09T23:58:24.095Z,7.15
